createdAt,value
2022-07-29T00:02:16.136Z,63.02
2022-07-29T00:04:42.861Z,62.86
2022-07-29T00:07:09.478Z,63.16
2022-07-29T00:09:44.876Z,63.23
2022-07-29T00:12:21.520Z,63.02
2022-07-29T00:14:53.615Z,63.47
2022-07-29T00:17:20.366Z,63.93
2022-07-29T00:19:46.949Z,64.46
2022-07-29T00:22:13.445Z,64.39
2022-07-29T00:24:39.956Z,64.41
2022-07-29T00:27:07.113Z,64.62
2022-07-29T00:29:34.899Z,64.95
2022-07-29T00:32:02.474Z,64.72
2022-07-29T00:34:47.522Z,64.83
2022-07-29T00:37:13.964Z,64.93
2022-07-29T00:39:40.454Z,65.38
2022-07-29T00:42:07.148Z,65.72
2022-07-29T00:44:38.612Z,66.05
2022-07-29T00:47:05.634Z,66.27
2022-07-29T00:49:32.749Z,66.52
2022-07-29T00:51:59.926Z,65.96
2022-07-29T00:54:27.829Z,65.99
2022-07-29T00:56:54.643Z,66.17
2022-07-29T00:59:21.272Z,65.88
2022-07-29T01:01:47.905Z,65.96
2022-07-29T01:04:14.773Z,66.38
2022-07-29T01:06:43.862Z,66.20
2022-07-29T01:09:11.921Z,66.73
2022-07-29T01:11:39.131Z,65.85
2022-07-29T01:14:07.953Z,66.45
2022-07-29T01:16:43.359Z,66.57
2022-07-29T01:19:31.764Z,66.39
2022-07-29T01:22:03.128Z,66.37
2022-07-29T01:24:44.969Z,66.49
2022-07-29T01:27:16.318Z,66.36
2022-07-29T01:29:56.179Z,66.57
2022-07-29T01:32:29.546Z,66.94
2022-07-29T01:35:08.581Z,67.36
2022-07-29T01:37:46.312Z,67.68
2022-07-29T01:40:22.753Z,67.72
2022-07-29T01:43:01.030Z,67.75
2022-07-29T01:45:47.709Z,67.83
2022-07-29T01:48:19.094Z,68.03
2022-07-29T01:50:49.989Z,67.94
2022-07-29T01:53:26.555Z,67.71
2022-07-29T01:55:55.589Z,67.42
2022-07-29T01:58:27.057Z,67.92
2022-07-29T02:00:56.584Z,67.42
2022-07-29T02:03:24.213Z,67.77
2022-07-29T02:05:52.853Z,68.44
2022-07-29T02:08:20.782Z,68.13
2022-07-29T02:10:49.410Z,68.10
2022-07-29T02:13:18.308Z,68.34
2022-07-29T02:15:45.881Z,68.44
2022-07-29T02:18:17.836Z,68.45
2022-07-29T02:20:53.737Z,68.25
2022-07-29T02:23:24.907Z,68.21
2022-07-29T02:25:55.998Z,68.22
2022-07-29T02:28:28.198Z,68.02
2022-07-29T02:30:58.453Z,67.90
2022-07-29T02:33:26.462Z,67.60
2022-07-29T02:35:53.774Z,67.38
2022-07-29T02:38:40.416Z,67.38
2022-07-29T02:41:12.546Z,67.62
2022-07-29T02:43:41.606Z,67.59
2022-07-29T02:46:28.979Z,67.85
2022-07-29T02:49:02.898Z,67.56
2022-07-29T02:51:51.902Z,67.75
2022-07-29T02:54:24.877Z,67.74
2022-07-29T02:56:56.441Z,67.80
2022-07-29T02:59:27.046Z,67.45
2022-07-29T03:01:56.058Z,67.93
2022-07-29T03:04:25.709Z,67.81
2022-07-29T03:06:53.822Z,68.21
2022-07-29T03:09:21.775Z,68.41
2022-07-29T03:11:49.700Z,68.55
2022-07-29T03:14:20.560Z,68.46
2022-07-29T03:16:47.982Z,68.60
2022-07-29T03:19:14.956Z,68.71
2022-07-29T03:21:41.638Z,68.30
2022-07-29T03:24:10.871Z,68.60
2022-07-29T03:26:40.269Z,68.21
2022-07-29T03:29:07.160Z,68.29
2022-07-29T03:31:34.183Z,67.91
2022-07-29T03:34:00.964Z,68.05
2022-07-29T03:36:27.886Z,68.25
2022-07-29T03:38:55.684Z,67.56
2022-07-29T03:41:26.263Z,67.92
2022-07-29T03:43:54.586Z,67.87
2022-07-29T03:46:27.348Z,67.93
2022-07-29T03:48:59.458Z,67.60
2022-07-29T03:51:33.066Z,67.57
2022-07-29T03:54:00.482Z,68.35
2022-07-29T03:56:28.905Z,68.31
2022-07-29T03:58:56.531Z,68.88
2022-07-29T04:01:24.454Z,68.87
2022-07-29T04:03:51.305Z,69.14
2022-07-29T04:06:17.904Z,69.00
2022-07-29T04:08:44.468Z,68.57
2022-07-29T04:11:13.943Z,68.33
2022-07-29T04:13:40.469Z,67.98
2022-07-29T04:16:07.039Z,68.52
2022-07-29T04:18:33.824Z,68.84
2022-07-29T04:21:01.827Z,68.40
2022-07-29T04:23:33.395Z,68.32
2022-07-29T04:26:02.155Z,68.10
2022-07-29T04:28:29.127Z,68.23
2022-07-29T04:30:55.682Z,67.82
2022-07-29T04:33:22.286Z,67.90
2022-07-29T04:35:52.450Z,67.28
2022-07-29T04:38:23.166Z,68.03
2022-07-29T04:40:49.971Z,67.87
2022-07-29T04:43:16.906Z,67.85
2022-07-29T04:45:49.277Z,68.38
2022-07-29T04:48:15.790Z,69.16
2022-07-29T04:50:43.109Z,69.24
2022-07-29T04:53:09.818Z,69.34
2022-07-29T04:55:39.065Z,68.62
2022-07-29T04:58:05.917Z,69.25
2022-07-29T05:00:33.568Z,68.96
2022-07-29T05:03:00.462Z,68.82
2022-07-29T05:05:27.057Z,68.86
2022-07-29T05:07:53.664Z,68.84
2022-07-29T05:10:20.318Z,68.13
2022-07-29T05:12:46.796Z,68.50
2022-07-29T05:15:13.393Z,68.60
2022-07-29T05:17:40.115Z,68.85
2022-07-29T05:20:07.146Z,68.52
2022-07-29T05:22:33.841Z,68.32
2022-07-29T05:25:02.266Z,68.48
2022-07-29T05:27:32.122Z,68.56
2022-07-29T05:29:58.668Z,68.76
2022-07-29T05:32:25.416Z,69.61
2022-07-29T05:34:52.022Z,69.36
2022-07-29T05:37:20.519Z,69.09
2022-07-29T05:39:50.472Z,68.90
2022-07-29T05:42:23.830Z,68.89
2022-07-29T05:44:50.343Z,68.41
2022-07-29T05:47:17.099Z,67.81
2022-07-29T05:49:43.668Z,67.64
2022-07-29T05:52:10.444Z,66.83
2022-07-29T05:54:37.580Z,67.28
2022-07-29T05:57:04.152Z,66.54
2022-07-29T05:59:30.819Z,66.61
2022-07-29T06:01:58.493Z,66.50
2022-07-29T06:04:25.301Z,66.35
2022-07-29T06:06:51.940Z,66.58
2022-07-29T06:09:18.557Z,65.68
2022-07-29T06:11:45.066Z,65.83
2022-07-29T06:14:12.204Z,65.20
2022-07-29T06:16:38.950Z,65.85
2022-07-29T06:19:05.766Z,64.70
2022-07-29T06:21:32.301Z,65.50
2022-07-29T06:23:58.876Z,64.24
2022-07-29T06:26:30.741Z,65.60
2022-07-29T06:28:58.151Z,65.91
2022-07-29T06:31:24.854Z,65.53
2022-07-29T06:33:51.420Z,65.17
2022-07-29T06:36:21.717Z,64.99
2022-07-29T06:38:51.507Z,65.37
2022-07-29T06:41:19.175Z,65.24
2022-07-29T06:43:52.091Z,65.71
2022-07-29T06:46:22.075Z,65.43
2022-07-29T06:48:49.739Z,65.31
2022-07-29T06:51:22.977Z,63.53
2022-07-29T06:54:00.282Z,63.19
2022-07-29T06:56:40.307Z,62.68
2022-07-29T06:59:11.685Z,63.19
2022-07-29T07:01:43.622Z,62.37
2022-07-29T07:04:10.787Z,60.65
2022-07-29T07:06:37.939Z,60.35
2022-07-29T07:09:05.101Z,59.07
2022-07-29T07:11:31.746Z,61.08
2022-07-29T07:14:03.015Z,60.07
2022-07-29T07:16:30.865Z,58.93
2022-07-29T07:18:57.547Z,59.17
2022-07-29T07:21:24.198Z,58.40
2022-07-29T07:23:50.681Z,57.60
2022-07-29T07:26:17.188Z,57.55
2022-07-29T07:28:43.738Z,58.16
2022-07-29T07:31:10.697Z,57.89
2022-07-29T07:33:37.261Z,57.47
2022-07-29T07:36:04.134Z,57.17
2022-07-29T07:38:30.748Z,57.24
2022-07-29T07:40:57.322Z,55.16
2022-07-29T07:43:23.971Z,54.66
2022-07-29T07:45:50.704Z,55.37
2022-07-29T07:48:17.298Z,56.54
2022-07-29T07:50:44.862Z,55.56
2022-07-29T07:53:11.732Z,54.79
2022-07-29T07:56:09.260Z,55.18
2022-07-29T07:58:31.418Z,54.97
2022-07-29T08:00:58.076Z,54.38
2022-07-29T08:03:24.692Z,53.74
2022-07-29T08:05:55.284Z,54.25
2022-07-29T08:08:22.049Z,53.92
2022-07-29T08:10:54.636Z,55.90
2022-07-29T08:13:22.683Z,54.25
2022-07-29T08:15:58.460Z,54.64
2022-07-29T08:18:26.232Z,54.30
2022-07-29T08:20:52.908Z,54.33
2022-07-29T08:23:20.148Z,54.01
2022-07-29T08:25:46.731Z,54.28
2022-07-29T08:28:17.393Z,54.71
2022-07-29T08:30:43.929Z,54.06
2022-07-29T08:33:10.476Z,54.19
2022-07-29T08:35:37.066Z,54.47
2022-07-29T08:38:04.462Z,52.88
2022-07-29T08:40:32.643Z,52.88
2022-07-29T08:43:00.744Z,53.34
2022-07-29T08:45:30.223Z,53.77
2022-07-29T08:47:57.200Z,52.21
2022-07-29T08:50:26.802Z,52.80
2022-07-29T08:52:57.926Z,53.12
2022-07-29T08:55:26.736Z,53.67
2022-07-29T08:57:57.262Z,51.95
2022-07-29T09:00:26.156Z,52.21
2022-07-29T09:02:58.187Z,51.32
2022-07-29T09:05:26.823Z,51.37
2022-07-29T09:07:53.683Z,51.52
2022-07-29T09:10:20.899Z,51.04
2022-07-29T09:12:47.606Z,51.86
2022-07-29T09:15:14.144Z,51.22
2022-07-29T09:17:42.748Z,51.33
2022-07-29T09:20:14.766Z,52.34
2022-07-29T09:22:42.314Z,50.94
2022-07-29T09:25:09.627Z,49.23
2022-07-29T09:27:36.664Z,47.98
2022-07-29T09:30:11.398Z,47.63
2022-07-29T09:32:57.658Z,49.23
2022-07-29T09:35:25.923Z,49.07
2022-07-29T09:37:52.876Z,49.62
2022-07-29T09:40:37.593Z,50.38
2022-07-29T09:43:14.395Z,48.95
2022-07-29T09:45:41.035Z,49.63
2022-07-29T09:48:18.582Z,49.37
2022-07-29T09:50:47.844Z,49.84
2022-07-29T09:53:31.758Z,49.69
2022-07-29T09:55:58.435Z,48.03
2022-07-29T09:58:25.363Z,49.90
2022-07-29T10:00:53.879Z,48.91
2022-07-29T10:03:20.558Z,48.82
2022-07-29T10:06:06.111Z,49.49
2022-07-29T10:08:32.967Z,48.76
2022-07-29T10:11:12.123Z,49.69
2022-07-29T10:13:39.389Z,49.00
2022-07-29T10:16:07.354Z,48.95
2022-07-29T10:18:35.335Z,48.31
2022-07-29T10:21:02.397Z,48.21
2022-07-29T10:23:46.118Z,49.47
2022-07-29T10:26:14.134Z,48.00
2022-07-29T10:28:40.640Z,47.53
2022-07-29T10:31:13.156Z,47.14
2022-07-29T10:34:26.475Z,47.75
2022-07-29T10:37:05.227Z,46.15
2022-07-29T10:39:53.991Z,45.88
2022-07-29T10:42:33.887Z,44.53
2022-07-29T10:45:02.865Z,44.19
2022-07-29T10:47:31.619Z,42.96
2022-07-29T10:50:01.208Z,44.50
2022-07-29T10:52:58.018Z,45.81
2022-07-29T10:55:45.418Z,44.72
2022-07-29T10:58:17.781Z,44.78
2022-07-29T11:00:45.654Z,43.64
2022-07-29T11:03:50.477Z,44.35
2022-07-29T11:06:26.578Z,44.46
2022-07-29T11:09:25.796Z,45.52
2022-07-29T11:12:02.264Z,44.58
2022-07-29T11:14:59.929Z,45.55
2022-07-29T11:17:26.860Z,43.73
2022-07-29T11:20:31.768Z,44.68
2022-07-29T11:22:59.348Z,44.37
2022-07-29T11:28:23.229Z,44.29
2022-07-29T11:30:54.772Z,42.43
2022-07-29T11:33:54.138Z,41.76
2022-07-29T11:36:28.384Z,41.73
2022-07-29T11:39:36.404Z,42.76
2022-07-29T11:42:32.157Z,43.14
2022-07-29T11:45:41.085Z,43.42
2022-07-29T11:47:55.650Z,41.50
2022-07-29T11:50:36.558Z,42.24
2022-07-29T11:53:12.166Z,41.69
2022-07-29T11:55:51.514Z,42.06
2022-07-29T11:58:25.144Z,42.53
2022-07-29T12:00:53.076Z,40.95
2022-07-29T12:07:02.747Z,43.33
2022-07-29T12:09:11.248Z,41.98
2022-07-29T12:11:41.436Z,41.52
2022-07-29T12:14:08.066Z,40.97
2022-07-29T12:16:38.285Z,40.94
2022-07-29T12:19:05.849Z,41.91
2022-07-29T12:21:52.317Z,41.27
2022-07-29T12:24:23.575Z,41.53
2022-07-29T12:26:55.163Z,40.79
2022-07-29T12:29:33.938Z,39.89
2022-07-29T12:32:02.089Z,39.84
2022-07-29T12:34:30.334Z,41.15
2022-07-29T12:36:57.073Z,40.80
2022-07-29T12:39:23.907Z,40.17
2022-07-29T12:41:50.538Z,39.06
2022-07-29T12:44:17.014Z,40.75
2022-07-29T12:46:43.678Z,40.47
2022-07-29T12:49:10.385Z,40.43
2022-07-29T12:51:39.402Z,40.40
2022-07-29T12:54:11.699Z,40.28
2022-07-29T12:56:43.745Z,39.65
2022-07-29T12:59:18.663Z,40.48
2022-07-29T13:01:46.067Z,39.19
2022-07-29T13:04:25.813Z,39.29
2022-07-29T13:07:01.330Z,39.94
2022-07-29T13:09:41.635Z,39.01
2022-07-29T13:12:13.479Z,39.55
2022-07-29T13:14:45.932Z,39.99
2022-07-29T13:17:16.540Z,38.90
2022-07-29T13:19:45.957Z,38.82
2022-07-29T13:22:18.158Z,38.88
2022-07-29T13:25:03.876Z,38.17
2022-07-29T13:27:35.243Z,39.56
2022-07-29T13:30:04.747Z,38.29
2022-07-29T13:32:35.521Z,39.08
2022-07-29T13:35:04.970Z,39.44
2022-07-29T13:37:34.916Z,40.02
2022-07-29T13:40:04.049Z,40.80
2022-07-29T13:42:30.733Z,39.62
2022-07-29T13:44:57.317Z,39.71
2022-07-29T13:47:32.332Z,41.29
2022-07-29T13:50:00.567Z,40.30
2022-07-29T13:52:27.151Z,38.50
2022-07-29T13:54:54.361Z,39.65
2022-07-29T13:57:20.932Z,38.45
2022-07-29T13:59:51.902Z,38.36
2022-07-29T14:02:20.457Z,38.68
2022-07-29T14:04:47.211Z,38.43
2022-07-29T14:07:16.314Z,39.02
2022-07-29T14:09:43.587Z,38.55
2022-07-29T14:12:10.675Z,38.48
2022-07-29T14:14:37.732Z,37.73
2022-07-29T14:17:07.227Z,37.68
2022-07-29T14:19:36.738Z,37.24
2022-07-29T14:22:08.502Z,38.00
2022-07-29T14:24:37.271Z,37.00
2022-07-29T14:27:05.351Z,39.16
2022-07-29T14:29:36.828Z,38.08
2022-07-29T14:32:08.269Z,38.60
2022-07-29T14:34:36.190Z,39.21
2022-07-29T14:37:03.869Z,38.69
2022-07-29T14:39:31.992Z,37.97
2022-07-29T14:41:59.623Z,37.28
2022-07-29T14:44:32.191Z,38.57
2022-07-29T14:47:07.676Z,38.26
2022-07-29T14:49:35.262Z,37.96
2022-07-29T14:52:02.098Z,38.92
2022-07-29T14:54:28.780Z,38.88
2022-07-29T14:56:58.170Z,39.11
2022-07-29T14:59:25.483Z,39.66
2022-07-29T15:01:52.074Z,39.31
2022-07-29T15:04:18.591Z,38.25
2022-07-29T15:06:45.205Z,38.12
2022-07-29T15:09:11.784Z,39.45
2022-07-29T15:11:38.950Z,39.29
2022-07-29T15:14:08.758Z,38.98
2022-07-29T15:16:39.502Z,38.90
2022-07-29T15:19:10.267Z,38.07
2022-07-29T15:21:41.641Z,37.69
2022-07-29T15:24:16.366Z,37.75
2022-07-29T15:26:44.368Z,37.93
2022-07-29T15:29:10.862Z,37.27
2022-07-29T15:31:37.664Z,37.12
2022-07-29T15:34:06.231Z,37.19
2022-07-29T15:36:51.424Z,37.65
2022-07-29T15:39:19.161Z,36.20
2022-07-29T15:41:45.674Z,37.36
2022-07-29T15:44:12.185Z,36.51
2022-07-29T15:46:57.424Z,35.91
2022-07-29T15:49:24.541Z,35.50
2022-07-29T15:51:51.061Z,36.46
2022-07-29T15:54:17.787Z,35.77
2022-07-29T15:56:44.290Z,35.54
2022-07-29T15:59:10.890Z,35.81
2022-07-29T16:01:49.418Z,36.06
2022-07-29T16:04:17.349Z,36.05
2022-07-29T16:06:45.789Z,35.35
2022-07-29T16:09:12.634Z,36.17
2022-07-29T16:11:39.101Z,36.91
2022-07-29T16:14:05.960Z,36.72
2022-07-29T16:16:35.984Z,35.25
2022-07-29T16:19:03.205Z,36.13
2022-07-29T16:21:31.540Z,35.09
2022-07-29T16:24:01.173Z,36.43
2022-07-29T16:26:28.321Z,35.55
2022-07-29T16:28:56.130Z,35.00
2022-07-29T16:31:23.096Z,35.59
2022-07-29T16:33:55.248Z,36.00
2022-07-29T16:36:23.215Z,36.18
2022-07-29T16:38:50.601Z,36.58
2022-07-29T16:41:17.153Z,35.32
2022-07-29T16:43:43.607Z,36.59
2022-07-29T16:46:14.686Z,36.40
2022-07-29T16:48:45.761Z,36.41
2022-07-29T16:51:14.229Z,37.29
2022-07-29T16:53:41.812Z,36.16
2022-07-29T16:56:12.788Z,36.50
2022-07-29T16:58:43.896Z,36.63
2022-07-29T17:01:11.375Z,37.16
2022-07-29T17:04:00.184Z,36.20
2022-07-29T17:06:27.708Z,37.01
2022-07-29T17:08:54.253Z,36.05
2022-07-29T17:11:20.737Z,36.51
2022-07-29T17:13:47.370Z,36.04
2022-07-29T17:16:13.996Z,36.81
2022-07-29T17:18:40.657Z,36.95
2022-07-29T17:21:07.135Z,37.22
2022-07-29T17:23:33.701Z,37.95
2022-07-29T17:26:00.179Z,37.83
2022-07-29T17:28:28.926Z,37.67
2022-07-29T17:30:55.495Z,37.31
2022-07-29T17:33:23.462Z,38.13
2022-07-29T17:36:08.729Z,38.38
2022-07-29T17:38:35.229Z,38.68
2022-07-29T17:41:01.851Z,38.40
2022-07-29T17:43:34.251Z,38.48
2022-07-29T17:46:03.091Z,38.01
2022-07-29T17:48:29.715Z,38.77
2022-07-29T17:50:56.546Z,39.09
2022-07-29T17:53:23.163Z,39.23
2022-07-29T17:55:49.704Z,38.62
2022-07-29T17:58:16.351Z,39.03
2022-07-29T18:00:43.622Z,38.43
2022-07-29T18:03:10.403Z,39.31
2022-07-29T18:05:37.524Z,39.48
2022-07-29T18:08:04.266Z,39.00
2022-07-29T18:10:31.273Z,39.81
2022-07-29T18:12:57.867Z,39.89
2022-07-29T18:15:24.386Z,39.84
2022-07-29T18:17:57.072Z,40.85
2022-07-29T18:20:25.151Z,40.58
2022-07-29T18:22:54.574Z,40.50
2022-07-29T18:25:21.270Z,41.25
2022-07-29T18:27:47.847Z,41.23
2022-07-29T18:30:17.518Z,41.89
2022-07-29T18:32:59.241Z,41.88
2022-07-29T18:35:30.818Z,42.56
2022-07-29T18:38:00.852Z,42.53
2022-07-29T18:40:29.822Z,42.69
2022-07-29T18:42:56.568Z,43.17
2022-07-29T18:45:23.269Z,43.56
2022-07-29T18:47:55.673Z,43.53
2022-07-29T18:50:28.803Z,44.04
2022-07-29T18:52:58.466Z,44.23
2022-07-29T18:55:26.146Z,45.04
2022-07-29T18:57:53.188Z,45.76
2022-07-29T19:00:23.993Z,46.13
2022-07-29T19:02:58.468Z,47.04
2022-07-29T19:05:25.136Z,47.31
2022-07-29T19:07:51.726Z,48.10
2022-07-29T19:10:18.678Z,47.89
2022-07-29T19:12:45.234Z,48.26
2022-07-29T19:15:19.980Z,47.84
2022-07-29T19:17:49.736Z,47.82
2022-07-29T19:20:16.521Z,47.75
2022-07-29T19:22:43.032Z,48.51
2022-07-29T19:25:10.048Z,48.28
2022-07-29T19:27:36.863Z,48.69
2022-07-29T19:30:06.485Z,48.88
2022-07-29T19:32:33.157Z,49.77
2022-07-29T19:35:18.571Z,49.81
2022-07-29T19:37:45.064Z,50.18
2022-07-29T19:40:12.631Z,50.60
2022-07-29T19:42:39.422Z,50.57
2022-07-29T19:45:06.565Z,50.67
2022-07-29T19:47:33.119Z,51.25
2022-07-29T19:50:00.680Z,51.18
2022-07-29T19:52:32.567Z,51.77
2022-07-29T19:54:59.824Z,52.72
2022-07-29T19:57:28.564Z,53.23
2022-07-29T20:00:08.608Z,53.85
2022-07-29T20:02:39.290Z,55.01
2022-07-29T20:05:06.252Z,53.62
2022-07-29T20:07:35.865Z,55.48
2022-07-29T20:10:06.154Z,56.00
2022-07-29T20:12:33.074Z,56.42
2022-07-29T20:15:00.217Z,56.37
2022-07-29T20:17:27.333Z,56.32
2022-07-29T20:19:54.320Z,56.85
2022-07-29T20:22:21.778Z,55.74
2022-07-29T20:24:49.111Z,57.16
2022-07-29T20:27:15.655Z,57.93
2022-07-29T20:29:42.309Z,58.17
2022-07-29T20:32:09.023Z,58.37
2022-07-29T20:34:35.520Z,58.93
2022-07-29T20:37:02.748Z,59.27
2022-07-29T20:39:30.319Z,59.52
2022-07-29T20:41:56.827Z,59.74
2022-07-29T20:44:24.290Z,60.44
2022-07-29T20:46:51.023Z,60.58
2022-07-29T20:49:17.694Z,61.29
2022-07-29T20:51:44.367Z,62.10
2022-07-29T20:54:11.732Z,63.25
2022-07-29T20:56:38.826Z,63.85
2022-07-29T20:59:05.344Z,63.96
2022-07-29T21:01:31.951Z,64.26
2022-07-29T21:03:58.622Z,63.96
2022-07-29T21:06:25.146Z,64.04
2022-07-29T21:08:51.797Z,64.40
2022-07-29T21:11:18.634Z,64.46
2022-07-29T21:14:05.206Z,64.63
2022-07-29T21:16:33.635Z,65.09
2022-07-29T21:19:00.245Z,65.33
2022-07-29T21:21:26.952Z,65.64
2022-07-29T21:23:53.533Z,66.41
2022-07-29T21:26:20.004Z,66.32
2022-07-29T21:28:46.498Z,66.67
2022-07-29T21:31:17.093Z,66.40
2022-07-29T21:33:46.370Z,67.21
2022-07-29T21:36:47.227Z,67.41
2022-07-29T21:39:06.797Z,67.87
2022-07-29T21:41:34.449Z,68.58
2022-07-29T21:44:01.361Z,68.40
2022-07-29T21:46:28.250Z,69.12
2022-07-29T21:48:54.912Z,68.73
2022-07-29T21:51:21.533Z,69.44
2022-07-29T21:53:48.091Z,69.34
2022-07-29T21:56:15.211Z,69.02
2022-07-29T21:58:44.492Z,69.33
2022-07-29T22:01:11.147Z,69.92
2022-07-29T22:03:37.727Z,70.06
2022-07-29T22:06:04.542Z,70.71
2022-07-29T22:08:31.157Z,71.80
2022-07-29T22:10:57.619Z,72.09
2022-07-29T22:13:24.159Z,72.33
2022-07-29T22:15:50.746Z,71.79
2022-07-29T22:18:20.420Z,71.57
2022-07-29T22:20:48.253Z,71.88
2022-07-29T22:23:14.861Z,71.73
2022-07-29T22:25:41.341Z,71.83
2022-07-29T22:28:07.851Z,71.69
2022-07-29T22:30:34.466Z,71.86
2022-07-29T22:33:01.050Z,72.03
2022-07-29T22:35:27.524Z,71.93
2022-07-29T22:37:54.229Z,72.55
2022-07-29T22:40:20.817Z,72.27
2022-07-29T22:42:47.419Z,72.68
2022-07-29T22:45:14.064Z,73.05
2022-07-29T22:47:48.133Z,74.19
2022-07-29T22:50:15.758Z,74.10
2022-07-29T22:52:42.330Z,74.40
2022-07-29T22:55:09.138Z,74.15
2022-07-29T22:57:35.758Z,74.04
2022-07-29T23:00:02.445Z,74.25
2022-07-29T23:02:29.259Z,74.66
2022-07-29T23:04:56.165Z,74.50
2022-07-29T23:07:23.385Z,74.22
2022-07-29T23:09:49.958Z,74.14
2022-07-29T23:12:16.531Z,73.66
2022-07-29T23:14:43.827Z,73.95
2022-07-29T23:17:10.401Z,74.30
2022-07-29T23:19:36.944Z,74.86
2022-07-29T23:22:03.689Z,75.16
2022-07-29T23:24:30.142Z,75.26
2022-07-29T23:26:56.610Z,75.84
2022-07-29T23:29:23.196Z,75.77
2022-07-29T23:31:49.793Z,76.56
2022-07-29T23:34:16.391Z,76.37
2022-07-29T23:36:42.964Z,75.97
2022-07-29T23:39:11.412Z,76.33
2022-07-29T23:41:38.058Z,76.32
2022-07-29T23:44:05.102Z,76.65
2022-07-29T23:46:31.749Z,77.12
2022-07-29T23:48:58.447Z,77.37
2022-07-29T23:51:25.002Z,77.42
2022-07-29T23:53:53.352Z,77.21
2022-07-29T23:56:21.149Z,77.52
2022-07-29T23:58:47.665Z,77.64
